ěÝzenÝ letovÚho provozu ╚eskÚ republiky
Letiste: LKTB Aktualizace: 31.01.2023 16:00:33  UTC
 METAR LKTB 31.01. 16:00 ...
METAR LKTB 311600Z 26014KT CAVOK 04/M02 Q1017 NOSIG=
 TAF LKTB 31.01. 11:00 ...
TAF LKTB 311100Z 3112/0112 30010KT 9999 BKN033      PROB30 TEMPO 3112/0106 30012G22KT      PROB30 TEMPO 3112/0112 2000 SHRASN SCT005TCU BKN007=